createdAt,value
2018-01-02T00:00:58.391Z,67.18
2018-01-02T00:03:27.340Z,68.31
2018-01-02T00:05:54.948Z,68.51
2018-01-02T00:08:22.703Z,66.04
2018-01-02T00:10:52.042Z,67.91
2018-01-02T00:13:24.215Z,67.17
2018-01-02T00:15:54.258Z,68.09
2018-01-02T00:18:23.605Z,69.35
2018-01-02T00:20:52.796Z,68.62
2018-01-02T00:23:22.270Z,67.08
2018-01-02T00:25:52.808Z,67.80
2018-01-02T00:28:22.028Z,68.73
2018-01-02T00:30:50.491Z,68.93
2018-01-02T00:33:18.136Z,68.32
2018-01-02T00:35:46.488Z,68.48
2018-01-02T00:38:15.062Z,68.88
2018-01-02T00:40:44.811Z,68.52
2018-01-02T00:43:13.097Z,68.55
2018-01-02T00:45:40.805Z,68.67
2018-01-02T00:48:37.408Z,68.23
2018-01-02T00:51:05.243Z,67.69
2018-01-02T00:53:33.092Z,68.51
2018-01-02T00:56:05.969Z,68.49
2018-01-02T00:58:46.267Z,67.34
2018-01-02T01:01:14.684Z,71.77
2018-01-02T01:03:42.465Z,70.10
2018-01-02T01:06:26.672Z,71.76
2018-01-02T01:08:54.283Z,71.38
2018-01-02T01:11:21.870Z,70.01
2018-01-02T01:13:49.464Z,70.45
2018-01-02T01:16:17.149Z,72.37
2018-01-02T01:18:46.054Z,70.58
2018-01-02T01:21:13.731Z,70.13
2018-01-02T01:23:41.542Z,70.93
2018-01-02T01:26:10.219Z,70.60
2018-01-02T01:28:39.745Z,71.04
2018-01-02T01:31:08.319Z,72.71
2018-01-02T01:33:36.224Z,71.76
2018-01-02T01:36:03.927Z,72.82
2018-01-02T01:38:32.622Z,72.04
2018-01-02T01:41:00.547Z,71.58
2018-01-02T01:43:28.181Z,72.63
2018-01-02T01:45:55.793Z,71.82
2018-01-02T01:48:23.375Z,70.99
2018-01-02T01:50:51.210Z,70.93
2018-01-02T01:53:19.779Z,70.42
2018-01-02T01:55:47.442Z,71.93
2018-01-02T01:58:15.250Z,71.04
2018-01-02T02:00:43.923Z,70.68
2018-01-02T02:03:11.519Z,72.25
2018-01-02T02:05:39.186Z,69.46
2018-01-02T02:08:06.835Z,71.11
2018-01-02T02:10:34.444Z,70.16
2018-01-02T02:13:02.045Z,69.55
2018-01-02T02:15:29.697Z,69.88
2018-01-02T02:17:57.481Z,70.26
2018-01-02T02:20:25.332Z,68.75
2018-01-02T02:22:53.803Z,67.75
2018-01-02T02:25:22.100Z,69.57
2018-01-02T02:27:49.834Z,69.16
2018-01-02T02:30:17.576Z,70.15
2018-01-02T02:32:45.159Z,69.61
2018-01-02T02:35:12.827Z,69.91
2018-01-02T02:37:40.777Z,69.04
2018-01-02T02:40:08.541Z,68.63
2018-01-02T02:42:36.409Z,69.81
2018-01-02T02:45:05.062Z,69.88
2018-01-02T02:47:32.745Z,69.53
2018-01-02T02:50:00.721Z,69.38
2018-01-02T02:52:28.507Z,69.04
2018-01-02T02:54:56.136Z,70.93
2018-01-02T02:57:24.315Z,70.36
2018-01-02T02:59:52.056Z,71.02
2018-01-02T03:02:19.723Z,71.15
2018-01-02T03:04:47.305Z,70.58
2018-01-02T03:07:15.080Z,70.90
2018-01-02T03:09:42.727Z,69.76
2018-01-02T03:12:10.344Z,70.94
2018-01-02T03:14:38.825Z,71.65
2018-01-02T03:17:06.555Z,70.52
2018-01-02T03:19:34.146Z,71.01
2018-01-02T03:22:01.815Z,71.65
2018-01-02T03:24:30.416Z,70.99
2018-01-02T03:26:58.245Z,70.38
2018-01-02T03:29:26.552Z,69.40
2018-01-02T03:31:54.187Z,68.91
2018-01-02T03:34:21.887Z,70.01
2018-01-02T03:36:49.479Z,69.63
2018-01-02T03:39:17.140Z,69.72
2018-01-02T03:41:44.810Z,69.07
2018-01-02T03:44:12.426Z,69.97
2018-01-02T03:46:40.113Z,69.84
2018-01-02T03:49:07.674Z,68.96
2018-01-02T03:51:35.493Z,68.62
2018-01-02T03:54:03.109Z,69.46
2018-01-02T03:56:30.859Z,69.45
2018-01-02T03:58:58.819Z,68.51
2018-01-02T04:01:26.527Z,69.97
2018-01-02T04:03:54.580Z,70.50
2018-01-02T04:06:23.099Z,68.48
2018-01-02T04:08:50.795Z,69.01
2018-01-02T04:11:18.460Z,68.94
2018-01-02T04:13:46.282Z,69.89
2018-01-02T04:16:14.552Z,70.17
2018-01-02T04:18:42.677Z,68.45
2018-01-02T04:21:10.276Z,68.67
2018-01-02T04:23:37.976Z,69.36
2018-01-02T04:26:05.642Z,68.75
2018-01-02T04:28:33.341Z,69.90
2018-01-02T04:31:00.995Z,69.96
2018-01-02T04:33:28.603Z,68.86
2018-01-02T04:35:56.274Z,68.57
2018-01-02T04:38:23.993Z,69.28
2018-01-02T04:40:51.904Z,69.40
2018-01-02T04:43:19.525Z,68.73
2018-01-02T04:45:47.143Z,68.63
2018-01-02T04:48:14.986Z,69.96
2018-01-02T04:50:42.622Z,69.28
2018-01-02T04:53:10.281Z,69.26
2018-01-02T04:55:37.880Z,68.34
2018-01-02T04:58:05.548Z,67.20
2018-01-02T05:00:33.360Z,66.78
2018-01-02T05:03:00.927Z,67.02
2018-01-02T05:05:28.548Z,67.01
2018-01-02T05:07:57.117Z,67.58
2018-01-02T05:10:24.732Z,68.06
2018-01-02T05:12:52.339Z,69.45
2018-01-02T05:15:20.030Z,69.73
2018-01-02T05:17:47.656Z,69.70
2018-01-02T05:20:15.265Z,69.49
2018-01-02T05:22:43.078Z,70.69
2018-01-02T05:25:10.682Z,71.99
2018-01-02T05:27:38.293Z,72.18
2018-01-02T05:30:06.286Z,71.17
2018-01-02T05:32:33.892Z,71.43
2018-01-02T05:35:03.272Z,72.03
2018-01-02T05:37:30.939Z,71.57
2018-01-02T05:39:58.568Z,71.98
2018-01-02T05:42:26.200Z,73.20
2018-01-02T05:44:54.469Z,72.58
2018-01-02T05:47:22.141Z,72.88
2018-01-02T05:49:50.257Z,76.52
2018-01-02T05:52:17.900Z,76.13
2018-01-02T05:54:45.449Z,77.12
2018-01-02T05:57:13.303Z,81.07
2018-01-02T05:59:41.082Z,81.89
2018-01-02T06:02:08.686Z,78.09
2018-01-02T06:04:36.294Z,78.28
2018-01-02T06:07:03.937Z,79.02
2018-01-02T06:09:31.594Z,79.84
2018-01-02T06:11:59.220Z,80.98
2018-01-02T06:14:26.856Z,80.82
2018-01-02T06:16:54.540Z,80.72
2018-01-02T06:19:22.636Z,80.67
2018-01-02T06:21:50.226Z,78.95
2018-01-02T06:24:17.941Z,80.46
2018-01-02T06:26:45.566Z,79.91
2018-01-02T06:29:13.198Z,79.62
2018-01-02T06:31:41.364Z,79.50
2018-01-02T06:34:09.020Z,80.09
2018-01-02T06:36:37.078Z,79.39
2018-01-02T06:39:04.738Z,79.29
2018-01-02T06:41:32.392Z,78.62
2018-01-02T06:44:00.026Z,80.51
2018-01-02T06:46:27.650Z,80.78
2018-01-02T06:48:55.264Z,80.84
2018-01-02T06:51:23.689Z,80.97
2018-01-02T06:53:51.367Z,81.23
2018-01-02T06:56:19.037Z,81.43
2018-01-02T06:58:46.629Z,81.65
2018-01-02T07:01:14.351Z,81.26
2018-01-02T07:03:42.522Z,80.11
2018-01-02T07:06:10.230Z,79.94
2018-01-02T07:08:37.856Z,79.33
2018-01-02T07:11:05.626Z,79.91
2018-01-02T07:13:33.362Z,79.24
2018-01-02T07:16:01.805Z,78.63
2018-01-02T07:18:30.375Z,79.13
2018-01-02T07:20:58.005Z,78.73
2018-01-02T07:23:25.704Z,78.85
2018-01-02T07:25:53.863Z,79.76
2018-01-02T07:28:21.490Z,78.63
2018-01-02T07:30:49.298Z,79.12
2018-01-02T07:33:16.896Z,79.03
2018-01-02T07:35:44.522Z,77.16
2018-01-02T07:38:17.894Z,78.07
2018-01-02T07:40:45.533Z,78.18
2018-01-02T07:43:13.258Z,76.42
2018-01-02T07:45:41.726Z,76.05
2018-01-02T07:48:09.389Z,74.31
2018-01-02T07:50:37.051Z,75.55
2018-01-02T07:53:04.689Z,74.72
2018-01-02T07:55:32.352Z,74.36
2018-01-02T07:58:00.059Z,74.71
2018-01-02T08:00:28.485Z,71.81
2018-01-02T08:02:56.371Z,73.34
2018-01-02T08:05:24.277Z,75.00
2018-01-02T08:07:51.954Z,75.85
2018-01-02T08:10:19.582Z,77.88
2018-01-02T08:12:47.662Z,75.51
2018-01-02T08:15:16.060Z,77.04
2018-01-02T08:17:43.813Z,76.88
2018-01-02T08:20:11.575Z,77.71
2018-01-02T08:22:39.400Z,76.96
2018-01-02T08:25:07.142Z,77.88
2018-01-02T08:27:34.754Z,77.08
2018-01-02T08:30:04.612Z,76.62
2018-01-02T08:32:32.252Z,75.94
2018-01-02T08:35:00.672Z,75.25
2018-01-02T08:37:28.290Z,76.40
2018-01-02T08:39:56.166Z,76.63
2018-01-02T08:42:23.784Z,75.77
2018-01-02T08:44:51.462Z,74.20
2018-01-02T08:47:19.226Z,74.66
2018-01-02T08:49:47.117Z,76.04
2018-01-02T08:52:14.837Z,74.07
2018-01-02T08:54:42.736Z,74.42
2018-01-02T08:57:10.359Z,73.76
2018-01-02T08:59:38.098Z,74.57
2018-01-02T09:02:06.398Z,73.85
2018-01-02T09:04:34.074Z,71.81
2018-01-02T09:07:01.909Z,68.83
2018-01-02T09:09:30.617Z,66.58
2018-01-02T09:11:58.210Z,68.11
2018-01-02T09:14:26.154Z,69.92
2018-01-02T09:16:56.110Z,67.15
2018-01-02T09:19:24.016Z,65.94
2018-01-02T09:21:52.483Z,62.62
2018-01-02T09:24:20.365Z,60.39
2018-01-02T09:26:49.634Z,57.33
2018-01-02T09:29:17.242Z,54.90
2018-01-02T09:31:44.917Z,58.49
2018-01-02T09:34:12.749Z,56.47
2018-01-02T09:36:40.472Z,61.27
2018-01-02T09:39:08.108Z,58.66
2018-01-02T09:41:35.983Z,59.45
2018-01-02T09:44:03.893Z,59.49
2018-01-02T09:46:31.600Z,61.05
2018-01-02T09:48:59.225Z,56.74
2018-01-02T09:51:27.087Z,53.88
2018-01-02T09:53:54.774Z,56.22
2018-01-02T09:56:22.715Z,55.64
2018-01-02T09:58:50.427Z,56.18
2018-01-02T10:01:18.462Z,57.31
2018-01-02T10:03:46.074Z,58.03
2018-01-02T10:06:13.771Z,57.38
2018-01-02T10:08:41.501Z,58.43
2018-01-02T10:11:09.837Z,58.84
2018-01-02T10:13:37.592Z,59.10
2018-01-02T10:16:05.290Z,58.53
2018-01-02T10:18:33.789Z,58.05
2018-01-02T10:21:01.400Z,58.27
2018-01-02T10:23:29.038Z,56.66
2018-01-02T10:25:57.883Z,57.16
2018-01-02T10:28:25.523Z,58.81
2018-01-02T10:30:53.604Z,58.69
2018-01-02T10:33:21.303Z,58.39
2018-01-02T10:35:49.145Z,55.95
2018-01-02T10:38:17.061Z,54.17
2018-01-02T10:40:45.535Z,54.84
2018-01-02T10:43:13.299Z,54.71
2018-01-02T10:45:40.990Z,55.90
2018-01-02T10:48:08.636Z,55.13
2018-01-02T10:50:36.264Z,55.50
2018-01-02T10:53:03.947Z,53.65
2018-01-02T10:55:32.821Z,53.30
2018-01-02T10:58:00.461Z,54.52
2018-01-02T11:00:28.145Z,53.78
2018-01-02T11:02:55.838Z,52.35
2018-01-02T11:05:23.654Z,55.65
2018-01-02T11:07:52.098Z,55.75
2018-01-02T11:10:19.996Z,57.17
2018-01-02T11:12:53.317Z,58.05
2018-01-02T11:15:20.931Z,58.05
2018-01-02T11:17:48.510Z,57.63
2018-01-02T11:20:16.148Z,57.38
2018-01-02T11:22:45.391Z,59.63
2018-01-02T11:25:13.051Z,59.23
2018-01-02T11:27:40.700Z,59.29
2018-01-02T11:30:08.854Z,59.89
2018-01-02T11:32:36.457Z,57.67
2018-01-02T11:35:04.137Z,60.04
2018-01-02T11:37:32.983Z,60.40
2018-01-02T11:40:00.928Z,59.01
2018-01-02T11:42:29.387Z,59.70
2018-01-02T11:44:57.049Z,58.93
2018-01-02T11:47:25.239Z,59.77
2018-01-02T11:49:52.898Z,61.01
2018-01-02T11:52:20.592Z,60.09
2018-01-02T11:54:48.254Z,60.69
2018-01-02T11:57:15.810Z,59.51
2018-01-02T11:59:43.632Z,61.88
2018-01-02T12:02:11.372Z,59.35
2018-01-02T12:04:38.975Z,60.98
2018-01-02T12:07:06.591Z,60.33
2018-01-02T12:09:34.396Z,60.08
2018-01-02T12:12:01.991Z,60.88
2018-01-02T12:14:29.797Z,59.83
2018-01-02T12:16:57.414Z,61.63
2018-01-02T12:19:25.152Z,61.33
2018-01-02T12:21:52.737Z,62.53
2018-01-02T12:24:20.401Z,63.27
2018-01-02T12:26:47.983Z,61.82
2018-01-02T12:29:15.604Z,61.01
2018-01-02T12:31:43.311Z,60.84
2018-01-02T12:34:11.168Z,61.25
2018-01-02T12:36:38.835Z,61.55
2018-01-02T12:39:07.281Z,61.91
2018-01-02T12:41:35.253Z,62.84
2018-01-02T12:44:02.829Z,60.48
2018-01-02T12:46:30.426Z,58.77
2018-01-02T12:48:58.078Z,58.17
2018-01-02T12:51:25.806Z,59.13
2018-01-02T12:53:53.493Z,60.55
2018-01-02T12:56:22.434Z,61.07
2018-01-02T12:58:50.054Z,60.54
2018-01-02T13:01:18.659Z,62.96
2018-01-02T13:03:46.310Z,61.63
2018-01-02T13:06:13.954Z,61.80
2018-01-02T13:08:41.640Z,62.76
2018-01-02T13:11:09.412Z,63.25
2018-01-02T13:13:37.248Z,61.44
2018-01-02T13:16:05.255Z,61.91
2018-01-02T13:18:33.040Z,61.21
2018-01-02T13:21:00.736Z,63.06
2018-01-02T13:23:28.339Z,61.58
2018-01-02T13:25:55.983Z,61.47
2018-01-02T13:28:23.608Z,61.65
2018-01-02T13:30:51.270Z,62.21
2018-01-02T13:33:18.939Z,61.24
2018-01-02T13:35:46.625Z,62.67
2018-01-02T13:38:15.030Z,62.94
2018-01-02T13:40:42.697Z,63.30
2018-01-02T13:43:10.347Z,64.57
2018-01-02T13:45:38.490Z,62.52
2018-01-02T13:48:06.703Z,63.94
2018-01-02T13:50:34.440Z,65.27
2018-01-02T13:53:02.102Z,65.02
2018-01-02T13:55:29.801Z,64.58
2018-01-02T13:57:57.495Z,65.39
2018-01-02T14:00:25.517Z,65.79
2018-01-02T14:02:53.167Z,67.28
2018-01-02T14:05:25.104Z,66.54
2018-01-02T14:07:52.872Z,65.17
2018-01-02T14:10:21.338Z,65.65
2018-01-02T14:12:48.993Z,67.67
2018-01-02T14:15:16.700Z,67.09
2018-01-02T14:17:44.351Z,65.87
2018-01-02T14:20:12.024Z,66.89
2018-01-02T14:22:39.708Z,66.44
2018-01-02T14:25:07.994Z,66.63
2018-01-02T14:27:35.608Z,66.62
2018-01-02T14:30:11.118Z,66.75
2018-01-02T14:32:38.715Z,65.97
2018-01-02T14:35:06.364Z,67.99
2018-01-02T14:37:34.117Z,69.44
2018-01-02T14:40:01.828Z,69.14
2018-01-02T14:42:29.428Z,67.53
2018-01-02T14:44:57.130Z,67.70
2018-01-02T14:47:27.214Z,66.78
2018-01-02T14:49:54.915Z,65.99
2018-01-02T14:52:22.740Z,65.51
2018-01-02T14:54:50.430Z,66.93
2018-01-02T14:57:18.129Z,68.33
2018-01-02T14:59:45.783Z,67.21
2018-01-02T15:02:13.552Z,65.45
2018-01-02T15:04:41.582Z,66.74
2018-01-02T15:07:09.269Z,65.80
2018-01-02T15:09:36.956Z,66.73
2018-01-02T15:12:04.652Z,64.32
2018-01-02T15:14:33.148Z,62.70
2018-01-02T15:17:01.050Z,61.76
2018-01-02T15:19:28.704Z,62.21
2018-01-02T15:21:56.298Z,61.89
2018-01-02T15:24:23.899Z,61.66
2018-01-02T15:26:51.592Z,61.46
2018-01-02T15:29:19.220Z,61.35
2018-01-02T15:31:46.945Z,61.38
2018-01-02T15:34:14.571Z,61.77
2018-01-02T15:36:42.219Z,61.30
2018-01-02T15:39:09.899Z,61.87
2018-01-02T15:41:37.509Z,61.95
2018-01-02T15:44:05.197Z,63.26
2018-01-02T15:46:32.870Z,62.79
2018-01-02T15:49:00.681Z,63.29
2018-01-02T15:51:28.578Z,63.78
2018-01-02T15:53:56.244Z,64.17
2018-01-02T15:56:24.512Z,63.53
2018-01-02T15:58:52.258Z,64.29
2018-01-02T16:01:20.063Z,64.21
2018-01-02T16:03:48.094Z,63.03
2018-01-02T16:06:15.728Z,62.37
2018-01-02T16:08:43.458Z,65.07
2018-01-02T16:11:11.111Z,62.98
2018-01-02T16:13:39.191Z,63.91
2018-01-02T16:16:06.913Z,62.05
2018-01-02T16:18:35.161Z,62.39
2018-01-02T16:21:02.831Z,62.42
2018-01-02T16:23:30.534Z,62.68
2018-01-02T16:25:58.178Z,63.53
2018-01-02T16:28:25.830Z,64.09
2018-01-02T16:30:55.177Z,63.38
2018-01-02T16:33:22.859Z,65.25
2018-01-02T16:35:50.495Z,64.68
2018-01-02T16:38:18.462Z,63.84
2018-01-02T16:40:46.258Z,63.75
2018-01-02T16:43:13.914Z,63.94
2018-01-02T16:45:41.563Z,63.22
2018-01-02T16:48:09.280Z,65.00
2018-01-02T16:50:36.945Z,66.10
2018-01-02T16:53:04.587Z,65.54
2018-01-02T16:55:32.245Z,65.86
2018-01-02T16:57:59.834Z,66.60
2018-01-02T17:00:27.607Z,64.97
2018-01-02T17:02:55.825Z,65.48
2018-01-02T17:05:23.447Z,64.54
2018-01-02T17:07:51.305Z,64.23
2018-01-02T17:10:18.908Z,65.88
2018-01-02T17:12:46.546Z,64.93
2018-01-02T17:15:14.233Z,65.67
2018-01-02T17:17:41.879Z,65.55
2018-01-02T17:20:09.751Z,65.90
2018-01-02T17:22:38.139Z,68.43
2018-01-02T17:25:07.710Z,67.33
2018-01-02T17:27:36.451Z,66.87
2018-01-02T17:30:08.046Z,66.92
2018-01-02T17:32:35.694Z,66.47
2018-01-02T17:35:03.363Z,66.35
2018-01-02T17:37:31.673Z,66.01
2018-01-02T17:39:59.402Z,67.22
2018-01-02T17:42:27.113Z,67.40
2018-01-02T17:44:54.886Z,66.61
2018-01-02T17:47:22.507Z,66.71
2018-01-02T17:49:50.292Z,65.66
2018-01-02T17:52:18.077Z,66.27
2018-01-02T17:54:47.640Z,65.64
2018-01-02T17:57:16.464Z,66.20
2018-01-02T17:59:44.084Z,65.21
2018-01-02T18:02:11.855Z,65.65
2018-01-02T18:04:39.518Z,66.57
2018-01-02T18:07:07.218Z,66.31
2018-01-02T18:09:34.935Z,67.15
2018-01-02T18:12:03.536Z,67.06
2018-01-02T18:14:31.718Z,66.36
2018-01-02T18:16:59.339Z,65.93
2018-01-02T18:19:26.949Z,64.63
2018-01-02T18:21:55.913Z,65.03
2018-01-02T18:24:23.752Z,65.99
2018-01-02T18:26:52.883Z,65.67
2018-01-02T18:29:20.967Z,67.00
2018-01-02T18:31:49.866Z,67.09
2018-01-02T18:34:17.723Z,66.49
2018-01-02T18:36:45.576Z,67.99
2018-01-02T18:39:13.608Z,67.98
2018-01-02T18:41:42.578Z,66.32
2018-01-02T18:44:11.679Z,67.94
2018-01-02T18:46:39.466Z,68.30
2018-01-02T18:49:07.176Z,68.10
2018-01-02T18:51:36.497Z,67.50
2018-01-02T18:54:04.231Z,67.07
2018-01-02T18:56:32.784Z,66.97
2018-01-02T18:59:01.747Z,65.92
2018-01-02T19:01:29.627Z,66.25
2018-01-02T19:03:58.440Z,67.28
2018-01-02T19:06:26.136Z,66.81
2018-01-02T19:08:54.422Z,65.88
2018-01-02T19:11:22.583Z,65.71
2018-01-02T19:13:50.756Z,66.10
2018-01-02T19:16:18.433Z,65.86
2018-01-02T19:18:46.141Z,64.71
2018-01-02T19:21:13.976Z,67.25
2018-01-02T19:23:42.554Z,67.98
2018-01-02T19:26:12.048Z,66.78
2018-01-02T19:28:40.517Z,66.51
2018-01-02T19:31:08.648Z,66.19
2018-01-02T19:33:36.848Z,66.90
2018-01-02T19:36:04.602Z,66.45
2018-01-02T19:38:32.329Z,66.15
2018-01-02T19:41:01.554Z,66.11
2018-01-02T19:43:29.277Z,65.46
2018-01-02T19:45:57.779Z,65.47
2018-01-02T19:48:25.919Z,66.45
2018-01-02T19:50:54.531Z,67.07
2018-01-02T19:53:22.244Z,66.88
2018-01-02T19:55:50.054Z,67.74
2018-01-02T19:58:18.371Z,67.58
2018-01-02T20:00:46.098Z,68.11
2018-01-02T20:03:14.588Z,70.73
2018-01-02T20:05:42.409Z,68.70
2018-01-02T20:08:10.155Z,68.89
2018-01-02T20:10:37.767Z,68.69
2018-01-02T20:13:05.748Z,69.17
2018-01-02T20:15:33.413Z,69.20
2018-01-02T20:18:01.137Z,68.92
2018-01-02T20:20:30.654Z,68.84
2018-01-02T20:22:58.322Z,69.33
2018-01-02T20:25:26.205Z,69.14
2018-01-02T20:27:53.835Z,69.35
2018-01-02T20:30:21.463Z,69.02
2018-01-02T20:32:49.299Z,68.68
2018-01-02T20:35:18.161Z,68.96
2018-01-02T20:37:45.864Z,69.45
2018-01-02T20:40:13.463Z,69.28
2018-01-02T20:42:41.067Z,69.75
2018-01-02T20:45:10.180Z,70.34
2018-01-02T20:47:38.445Z,70.26
2018-01-02T20:50:06.089Z,70.26
2018-01-02T20:52:33.719Z,69.46
2018-01-02T20:55:01.330Z,70.00
2018-01-02T20:57:29.828Z,69.46
2018-01-02T20:59:57.486Z,69.09
2018-01-02T21:02:27.835Z,68.73
2018-01-02T21:05:04.326Z,69.04
2018-01-02T21:07:32.712Z,68.54
2018-01-02T21:10:00.480Z,68.13
2018-01-02T21:12:28.210Z,68.26
2018-01-02T21:15:11.243Z,68.14
2018-01-02T21:17:38.854Z,68.43
2018-01-02T21:20:06.583Z,68.58
2018-01-02T21:22:35.379Z,69.15
2018-01-02T21:25:03.253Z,68.91
2018-01-02T21:27:31.156Z,68.76
2018-01-02T21:29:59.973Z,68.95
2018-01-02T21:32:28.861Z,68.48
2018-01-02T21:34:56.522Z,68.12
2018-01-02T21:37:24.574Z,67.80
2018-01-02T21:39:52.301Z,67.72
2018-01-02T21:42:20.593Z,67.54
2018-01-02T21:44:49.567Z,67.39
2018-01-02T21:47:17.600Z,67.18
2018-01-02T21:49:46.500Z,68.02
2018-01-02T21:52:16.165Z,67.34
2018-01-02T21:54:43.918Z,67.61
2018-01-02T21:57:13.700Z,67.68
2018-01-02T21:59:41.722Z,67.98
2018-01-02T22:02:10.325Z,67.89
2018-01-02T22:04:39.508Z,67.61
2018-01-02T22:07:07.298Z,68.54
2018-01-02T22:09:35.067Z,69.17
2018-01-02T22:12:05.231Z,68.71
2018-01-02T22:14:32.990Z,68.65
2018-01-02T22:17:00.573Z,69.11
2018-01-02T22:19:28.812Z,68.40
2018-01-02T22:21:56.532Z,68.55
2018-01-02T22:24:24.392Z,68.53
2018-01-02T22:26:52.750Z,68.13
2018-01-02T22:29:21.198Z,68.15
2018-01-02T22:31:49.088Z,68.20
2018-01-02T22:34:16.690Z,67.67
2018-01-02T22:36:44.384Z,68.34
2018-01-02T22:39:12.008Z,67.82
2018-01-02T22:41:39.673Z,67.87
2018-01-02T22:44:08.143Z,67.78
2018-01-02T22:46:36.135Z,67.83
2018-01-02T22:49:03.731Z,67.92
2018-01-02T22:51:31.499Z,67.64
2018-01-02T22:53:59.243Z,67.72
2018-01-02T22:56:27.480Z,67.72
2018-01-02T22:58:55.178Z,67.53
2018-01-02T23:01:22.843Z,67.04
2018-01-02T23:03:51.299Z,67.18
2018-01-02T23:06:18.974Z,66.77
2018-01-02T23:08:46.694Z,66.17
2018-01-02T23:11:14.521Z,65.74
2018-01-02T23:13:42.164Z,66.01
2018-01-02T23:16:09.790Z,65.64
2018-01-02T23:18:37.818Z,65.68
2018-01-02T23:21:06.089Z,66.02
2018-01-02T23:23:33.699Z,65.68
2018-01-02T23:26:01.266Z,65.45
2018-01-02T23:31:00.851Z,65.31
2018-01-02T23:33:34.679Z,65.23
2018-01-02T23:43:58.315Z,65.00
2018-01-02T23:46:25.901Z,65.55
2018-01-02T23:48:55.326Z,65.09
2018-01-02T23:51:28.475Z,64.69
2018-01-02T23:54:02.116Z,65.18
2018-01-02T23:56:33.693Z,65.82
2018-01-02T23:59:08.066Z,65.34
